sensor_id;sensor_type;location;lat;lon;timestamp;P1;durP1;ratioP1;P2;durP2;ratioP2
28625;SDS011;18905;42.668;23.364;2023-01-28T00:01:35;15.55;;;8.75;;
28625;SDS011;18905;42.668;23.364;2023-01-28T00:04:01;14.80;;;9.10;;
28625;SDS011;18905;42.668;23.364;2023-01-28T00:06:26;15.30;;;8.77;;
28625;SDS011;18905;42.668;23.364;2023-01-28T00:08:52;16.88;;;8.80;;
28625;SDS011;18905;42.668;23.364;2023-01-28T00:11:18;13.70;;;8.48;;
28625;SDS011;18905;42.668;23.364;2023-01-28T00:13:49;12.90;;;8.32;;
28625;SDS011;18905;42.668;23.364;2023-01-28T00:16:16;15.38;;;8.77;;
28625;SDS011;18905;42.668;23.364;2023-01-28T00:18:41;14.40;;;9.30;;
28625;SDS011;18905;42.668;23.364;2023-01-28T00:21:08;13.98;;;8.50;;
28625;SDS011;18905;42.668;23.364;2023-01-28T00:23:36;17.58;;;8.70;;
28625;SDS011;18905;42.668;23.364;2023-01-28T00:26:07;14.45;;;8.90;;
28625;SDS011;18905;42.668;23.364;2023-01-28T00:28:35;15.10;;;9.30;;
28625;SDS011;18905;42.668;23.364;2023-01-28T00:33:55;12.95;;;7.72;;
28625;SDS011;18905;42.668;23.364;2023-01-28T00:36:22;14.68;;;8.48;;
28625;SDS011;18905;42.668;23.364;2023-01-28T00:38:52;16.33;;;9.13;;
28625;SDS011;18905;42.668;23.364;2023-01-28T00:41:20;12.30;;;7.72;;
28625;SDS011;18905;42.668;23.364;2023-01-28T00:43:47;12.70;;;8.38;;
28625;SDS011;18905;42.668;23.364;2023-01-28T00:46:14;13.52;;;8.50;;
28625;SDS011;18905;42.668;23.364;2023-01-28T00:48:40;14.38;;;8.52;;
28625;SDS011;18905;42.668;23.364;2023-01-28T00:51:07;12.73;;;8.23;;
28625;SDS011;18905;42.668;23.364;2023-01-28T00:53:34;13.23;;;8.57;;
28625;SDS011;18905;42.668;23.364;2023-01-28T00:56:02;13.45;;;8.23;;
28625;SDS011;18905;42.668;23.364;2023-01-28T00:58:29;13.30;;;7.88;;
28625;SDS011;18905;42.668;23.364;2023-01-28T01:00:55;15.60;;;8.45;;
28625;SDS011;18905;42.668;23.364;2023-01-28T01:03:20;19.15;;;8.02;;
28625;SDS011;18905;42.668;23.364;2023-01-28T01:05:46;11.13;;;8.00;;
28625;SDS011;18905;42.668;23.364;2023-01-28T01:08:11;11.75;;;7.82;;
28625;SDS011;18905;42.668;23.364;2023-01-28T01:10:37;13.25;;;8.45;;
28625;SDS011;18905;42.668;23.364;2023-01-28T01:13:06;12.43;;;7.80;;
28625;SDS011;18905;42.668;23.364;2023-01-28T01:15:32;14.23;;;8.38;;
28625;SDS011;18905;42.668;23.364;2023-01-28T01:17:57;14.63;;;8.90;;
28625;SDS011;18905;42.668;23.364;2023-01-28T01:20:25;15.05;;;9.00;;
28625;SDS011;18905;42.668;23.364;2023-01-28T01:22:52;13.35;;;8.93;;
28625;SDS011;18905;42.668;23.364;2023-01-28T01:25:17;13.70;;;8.73;;
28625;SDS011;18905;42.668;23.364;2023-01-28T01:27:47;12.50;;;8.80;;
28625;SDS011;18905;42.668;23.364;2023-01-28T01:30:13;12.68;;;8.25;;
28625;SDS011;18905;42.668;23.364;2023-01-28T01:32:40;14.93;;;8.95;;
28625;SDS011;18905;42.668;23.364;2023-01-28T01:35:06;14.02;;;9.13;;
28625;SDS011;18905;42.668;23.364;2023-01-28T01:37:33;13.85;;;8.48;;
28625;SDS011;18905;42.668;23.364;2023-01-28T01:40:00;15.10;;;8.45;;
28625;SDS011;18905;42.668;23.364;2023-01-28T01:42:27;13.85;;;8.23;;
28625;SDS011;18905;42.668;23.364;2023-01-28T01:47:24;15.10;;;9.38;;
28625;SDS011;18905;42.668;23.364;2023-01-28T01:49:54;13.48;;;8.07;;
28625;SDS011;18905;42.668;23.364;2023-01-28T01:52:27;14.38;;;8.57;;
28625;SDS011;18905;42.668;23.364;2023-01-28T01:54:58;13.75;;;8.00;;
28625;SDS011;18905;42.668;23.364;2023-01-28T01:57:29;14.52;;;9.00;;
28625;SDS011;18905;42.668;23.364;2023-01-28T01:59:58;13.73;;;8.15;;
28625;SDS011;18905;42.668;23.364;2023-01-28T02:02:40;13.63;;;8.45;;
28625;SDS011;18905;42.668;23.364;2023-01-28T02:05:10;13.20;;;8.68;;
28625;SDS011;18905;42.668;23.364;2023-01-28T02:07:38;12.65;;;8.40;;
28625;SDS011;18905;42.668;23.364;2023-01-28T02:10:05;14.23;;;8.73;;
28625;SDS011;18905;42.668;23.364;2023-01-28T02:12:35;14.13;;;9.45;;
28625;SDS011;18905;42.668;23.364;2023-01-28T02:15:13;13.60;;;8.85;;
28625;SDS011;18905;42.668;23.364;2023-01-28T02:17:43;12.73;;;8.20;;
28625;SDS011;18905;42.668;23.364;2023-01-28T02:20:12;15.13;;;9.45;;
28625;SDS011;18905;42.668;23.364;2023-01-28T02:30:34;14.32;;;9.23;;
28625;SDS011;18905;42.668;23.364;2023-01-28T02:33:04;14.35;;;8.95;;
28625;SDS011;18905;42.668;23.364;2023-01-28T02:38:12;13.65;;;8.23;;
28625;SDS011;18905;42.668;23.364;2023-01-28T02:40:43;13.95;;;7.57;;
28625;SDS011;18905;42.668;23.364;2023-01-28T02:43:41;13.98;;;8.63;;
28625;SDS011;18905;42.668;23.364;2023-01-28T02:46:13;13.63;;;7.93;;
28625;SDS011;18905;42.668;23.364;2023-01-28T02:48:58;12.02;;;7.93;;
28625;SDS011;18905;42.668;23.364;2023-01-28T02:54:28;13.82;;;8.65;;
28625;SDS011;18905;42.668;23.364;2023-01-28T02:59:50;18.23;;;8.95;;
28625;SDS011;18905;42.668;23.364;2023-01-28T03:07:44;14.18;;;7.78;;
28625;SDS011;18905;42.668;23.364;2023-01-28T03:10:11;12.73;;;8.00;;
28625;SDS011;18905;42.668;23.364;2023-01-28T03:12:40;15.82;;;9.43;;
28625;SDS011;18905;42.668;23.364;2023-01-28T03:15:31;12.95;;;7.57;;
28625;SDS011;18905;42.668;23.364;2023-01-28T03:19:02;13.88;;;8.43;;
28625;SDS011;18905;42.668;23.364;2023-01-28T03:21:33;13.38;;;7.78;;
28625;SDS011;18905;42.668;23.364;2023-01-28T03:24:23;15.18;;;7.97;;
28625;SDS011;18905;42.668;23.364;2023-01-28T03:27:19;14.63;;;8.30;;
28625;SDS011;18905;42.668;23.364;2023-01-28T03:30:14;11.80;;;7.40;;
28625;SDS011;18905;42.668;23.364;2023-01-28T03:33:03;11.68;;;7.43;;
28625;SDS011;18905;42.668;23.364;2023-01-28T03:35:49;13.15;;;7.82;;
28625;SDS011;18905;42.668;23.364;2023-01-28T03:38:33;12.38;;;7.40;;
28625;SDS011;18905;42.668;23.364;2023-01-28T03:41:06;12.32;;;8.05;;
28625;SDS011;18905;42.668;23.364;2023-01-28T03:43:34;11.10;;;7.55;;
28625;SDS011;18905;42.668;23.364;2023-01-28T03:45:59;11.93;;;7.43;;
28625;SDS011;18905;42.668;23.364;2023-01-28T03:48:26;12.15;;;7.28;;
28625;SDS011;18905;42.668;23.364;2023-01-28T03:50:54;12.20;;;7.47;;
28625;SDS011;18905;42.668;23.364;2023-01-28T03:53:21;12.38;;;8.60;;
28625;SDS011;18905;42.668;23.364;2023-01-28T03:55:48;13.32;;;8.32;;
28625;SDS011;18905;42.668;23.364;2023-01-28T03:58:15;12.98;;;8.55;;
28625;SDS011;18905;42.668;23.364;2023-01-28T04:00:42;11.40;;;8.55;;
28625;SDS011;18905;42.668;23.364;2023-01-28T04:03:08;12.30;;;7.90;;
28625;SDS011;18905;42.668;23.364;2023-01-28T04:05:42;12.57;;;7.80;;
28625;SDS011;18905;42.668;23.364;2023-01-28T04:08:08;16.00;;;8.70;;
28625;SDS011;18905;42.668;23.364;2023-01-28T04:10:34;12.82;;;8.25;;
28625;SDS011;18905;42.668;23.364;2023-01-28T04:12:59;13.48;;;7.97;;
28625;SDS011;18905;42.668;23.364;2023-01-28T04:15:24;14.25;;;8.52;;
28625;SDS011;18905;42.668;23.364;2023-01-28T04:17:50;16.65;;;8.82;;
28625;SDS011;18905;42.668;23.364;2023-01-28T04:20:16;14.77;;;8.65;;
28625;SDS011;18905;42.668;23.364;2023-01-28T04:22:41;13.52;;;9.25;;
28625;SDS011;18905;42.668;23.364;2023-01-28T04:25:07;12.90;;;8.65;;
28625;SDS011;18905;42.668;23.364;2023-01-28T04:27:33;14.55;;;8.80;;
28625;SDS011;18905;42.668;23.364;2023-01-28T04:29:59;13.23;;;8.02;;
28625;SDS011;18905;42.668;23.364;2023-01-28T04:32:25;12.77;;;7.78;;
28625;SDS011;18905;42.668;23.364;2023-01-28T04:34:51;12.52;;;6.47;;
28625;SDS011;18905;42.668;23.364;2023-01-28T04:37:16;12.65;;;7.68;;
28625;SDS011;18905;42.668;23.364;2023-01-28T04:39:42;13.55;;;8.13;;
28625;SDS011;18905;42.668;23.364;2023-01-28T04:42:07;14.27;;;8.70;;
28625;SDS011;18905;42.668;23.364;2023-01-28T04:44:33;16.38;;;8.48;;
28625;SDS011;18905;42.668;23.364;2023-01-28T04:46:58;11.80;;;6.68;;
28625;SDS011;18905;42.668;23.364;2023-01-28T04:49:23;15.05;;;8.27;;
28625;SDS011;18905;42.668;23.364;2023-01-28T04:51:49;11.70;;;7.50;;
28625;SDS011;18905;42.668;23.364;2023-01-28T04:54:14;14.93;;;8.10;;
28625;SDS011;18905;42.668;23.364;2023-01-28T04:56:40;11.77;;;7.72;;
28625;SDS011;18905;42.668;23.364;2023-01-28T04:59:05;11.65;;;7.68;;
28625;SDS011;18905;42.668;23.364;2023-01-28T05:01:32;11.82;;;7.85;;
28625;SDS011;18905;42.668;23.364;2023-01-28T05:03:57;13.20;;;7.50;;
28625;SDS011;18905;42.668;23.364;2023-01-28T05:06:23;13.15;;;8.45;;
28625;SDS011;18905;42.668;23.364;2023-01-28T05:08:49;12.27;;;8.10;;
28625;SDS011;18905;42.668;23.364;2023-01-28T05:11:14;14.73;;;8.75;;
28625;SDS011;18905;42.668;23.364;2023-01-28T05:13:40;14.80;;;9.27;;
28625;SDS011;18905;42.668;23.364;2023-01-28T05:16:05;14.30;;;8.38;;
28625;SDS011;18905;42.668;23.364;2023-01-28T05:18:31;15.05;;;8.15;;
28625;SDS011;18905;42.668;23.364;2023-01-28T05:20:56;12.60;;;8.98;;
28625;SDS011;18905;42.668;23.364;2023-01-28T05:23:22;14.30;;;7.88;;
28625;SDS011;18905;42.668;23.364;2023-01-28T05:25:48;12.18;;;8.07;;
28625;SDS011;18905;42.668;23.364;2023-01-28T05:28:14;15.30;;;9.30;;
28625;SDS011;18905;42.668;23.364;2023-01-28T05:30:40;13.57;;;7.35;;
28625;SDS011;18905;42.668;23.364;2023-01-28T05:33:05;14.38;;;8.60;;
28625;SDS011;18905;42.668;23.364;2023-01-28T05:35:31;13.55;;;8.25;;
28625;SDS011;18905;42.668;23.364;2023-01-28T05:37:56;14.10;;;8.35;;
28625;SDS011;18905;42.668;23.364;2023-01-28T05:40:22;13.70;;;9.60;;
28625;SDS011;18905;42.668;23.364;2023-01-28T05:42:47;14.57;;;8.95;;
28625;SDS011;18905;42.668;23.364;2023-01-28T05:45:13;15.02;;;8.85;;
28625;SDS011;18905;42.668;23.364;2023-01-28T05:47:38;13.00;;;8.93;;
28625;SDS011;18905;42.668;23.364;2023-01-28T05:50:04;12.50;;;8.27;;
28625;SDS011;18905;42.668;23.364;2023-01-28T05:52:30;11.88;;;8.18;;
28625;SDS011;18905;42.668;23.364;2023-01-28T05:54:56;13.80;;;9.13;;
28625;SDS011;18905;42.668;23.364;2023-01-28T05:57:21;12.40;;;8.18;;
28625;SDS011;18905;42.668;23.364;2023-01-28T05:59:47;12.07;;;8.43;;
28625;SDS011;18905;42.668;23.364;2023-01-28T06:02:12;12.73;;;7.85;;
28625;SDS011;18905;42.668;23.364;2023-01-28T06:04:38;14.60;;;8.85;;
28625;SDS011;18905;42.668;23.364;2023-01-28T06:07:03;14.15;;;9.05;;
28625;SDS011;18905;42.668;23.364;2023-01-28T06:09:29;12.60;;;7.45;;
28625;SDS011;18905;42.668;23.364;2023-01-28T06:11:54;13.35;;;8.35;;
28625;SDS011;18905;42.668;23.364;2023-01-28T06:14:19;14.35;;;8.55;;
28625;SDS011;18905;42.668;23.364;2023-01-28T06:16:45;13.55;;;8.20;;
28625;SDS011;18905;42.668;23.364;2023-01-28T06:19:10;14.32;;;8.98;;
28625;SDS011;18905;42.668;23.364;2023-01-28T06:21:36;14.30;;;9.00;;
28625;SDS011;18905;42.668;23.364;2023-01-28T06:24:01;12.13;;;7.90;;
28625;SDS011;18905;42.668;23.364;2023-01-28T06:26:27;15.48;;;8.63;;
28625;SDS011;18905;42.668;23.364;2023-01-28T06:28:52;14.15;;;8.77;;
28625;SDS011;18905;42.668;23.364;2023-01-28T06:31:17;15.75;;;9.07;;
28625;SDS011;18905;42.668;23.364;2023-01-28T06:33:43;14.95;;;9.73;;
28625;SDS011;18905;42.668;23.364;2023-01-28T06:36:08;15.07;;;9.07;;
28625;SDS011;18905;42.668;23.364;2023-01-28T06:38:34;14.50;;;8.60;;
28625;SDS011;18905;42.668;23.364;2023-01-28T06:40:59;16.20;;;9.52;;
28625;SDS011;18905;42.668;23.364;2023-01-28T06:43:25;15.07;;;9.18;;
28625;SDS011;18905;42.668;23.364;2023-01-28T06:45:58;17.58;;;10.68;;
28625;SDS011;18905;42.668;23.364;2023-01-28T06:48:23;17.92;;;8.55;;
28625;SDS011;18905;42.668;23.364;2023-01-28T06:50:50;15.82;;;9.13;;
28625;SDS011;18905;42.668;23.364;2023-01-28T06:53:16;14.60;;;9.02;;
28625;SDS011;18905;42.668;23.364;2023-01-28T06:55:41;15.30;;;9.95;;
28625;SDS011;18905;42.668;23.364;2023-01-28T06:58:07;17.17;;;10.07;;
28625;SDS011;18905;42.668;23.364;2023-01-28T07:00:32;15.25;;;8.82;;
28625;SDS011;18905;42.668;23.364;2023-01-28T07:02:58;18.52;;;9.77;;
28625;SDS011;18905;42.668;23.364;2023-01-28T07:05:23;15.40;;;10.15;;
28625;SDS011;18905;42.668;23.364;2023-01-28T07:07:49;16.40;;;10.02;;
28625;SDS011;18905;42.668;23.364;2023-01-28T07:10:15;18.05;;;10.25;;
28625;SDS011;18905;42.668;23.364;2023-01-28T07:12:40;18.98;;;10.48;;
28625;SDS011;18905;42.668;23.364;2023-01-28T07:15:06;17.08;;;10.57;;
28625;SDS011;18905;42.668;23.364;2023-01-28T07:17:34;19.58;;;10.13;;
28625;SDS011;18905;42.668;23.364;2023-01-28T07:20:00;17.48;;;10.23;;
28625;SDS011;18905;42.668;23.364;2023-01-28T07:22:25;17.58;;;9.60;;
28625;SDS011;18905;42.668;23.364;2023-01-28T07:24:51;15.68;;;9.55;;
28625;SDS011;18905;42.668;23.364;2023-01-28T07:27:16;17.50;;;10.00;;
28625;SDS011;18905;42.668;23.364;2023-01-28T07:29:41;14.82;;;9.05;;
28625;SDS011;18905;42.668;23.364;2023-01-28T07:32:07;17.33;;;10.52;;
28625;SDS011;18905;42.668;23.364;2023-01-28T07:34:32;14.98;;;10.07;;
28625;SDS011;18905;42.668;23.364;2023-01-28T07:36:58;22.63;;;11.38;;
28625;SDS011;18905;42.668;23.364;2023-01-28T07:39:23;19.23;;;10.52;;
28625;SDS011;18905;42.668;23.364;2023-01-28T07:41:48;16.00;;;9.85;;
28625;SDS011;18905;42.668;23.364;2023-01-28T07:44:14;15.77;;;9.85;;
28625;SDS011;18905;42.668;23.364;2023-01-28T07:46:39;18.02;;;10.25;;
28625;SDS011;18905;42.668;23.364;2023-01-28T07:49:05;15.50;;;9.40;;
28625;SDS011;18905;42.668;23.364;2023-01-28T07:51:30;17.20;;;9.40;;
28625;SDS011;18905;42.668;23.364;2023-01-28T07:53:55;17.00;;;10.30;;
28625;SDS011;18905;42.668;23.364;2023-01-28T07:56:21;16.85;;;9.95;;
28625;SDS011;18905;42.668;23.364;2023-01-28T07:58:50;16.80;;;9.80;;
28625;SDS011;18905;42.668;23.364;2023-01-28T08:01:15;17.70;;;10.32;;
28625;SDS011;18905;42.668;23.364;2023-01-28T08:03:42;16.05;;;10.27;;
28625;SDS011;18905;42.668;23.364;2023-01-28T08:06:07;16.50;;;10.35;;
28625;SDS011;18905;42.668;23.364;2023-01-28T08:08:33;17.00;;;10.93;;
28625;SDS011;18905;42.668;23.364;2023-01-28T08:11:04;18.25;;;11.82;;
28625;SDS011;18905;42.668;23.364;2023-01-28T08:13:32;21.58;;;11.90;;
28625;SDS011;18905;42.668;23.364;2023-01-28T08:15:58;21.40;;;11.18;;
28625;SDS011;18905;42.668;23.364;2023-01-28T08:18:24;18.65;;;11.57;;
28625;SDS011;18905;42.668;23.364;2023-01-28T08:20:53;17.55;;;10.93;;
28625;SDS011;18905;42.668;23.364;2023-01-28T08:23:19;19.20;;;11.48;;
28625;SDS011;18905;42.668;23.364;2023-01-28T08:25:45;18.08;;;11.38;;
28625;SDS011;18905;42.668;23.364;2023-01-28T08:28:11;19.75;;;10.48;;
28625;SDS011;18905;42.668;23.364;2023-01-28T08:30:38;18.17;;;11.32;;
28625;SDS011;18905;42.668;23.364;2023-01-28T08:33:04;18.65;;;10.98;;
28625;SDS011;18905;42.668;23.364;2023-01-28T08:35:31;24.40;;;11.18;;
28625;SDS011;18905;42.668;23.364;2023-01-28T08:37:58;18.25;;;11.07;;
28625;SDS011;18905;42.668;23.364;2023-01-28T08:40:25;17.95;;;10.52;;
28625;SDS011;18905;42.668;23.364;2023-01-28T08:42:51;19.55;;;11.43;;
28625;SDS011;18905;42.668;23.364;2023-01-28T08:45:19;20.33;;;9.02;;
28625;SDS011;18905;42.668;23.364;2023-01-28T08:47:56;17.67;;;9.85;;
28625;SDS011;18905;42.668;23.364;2023-01-28T08:50:24;17.30;;;10.80;;
28625;SDS011;18905;42.668;23.364;2023-01-28T08:53:02;16.05;;;10.10;;
28625;SDS011;18905;42.668;23.364;2023-01-28T08:55:29;16.15;;;10.52;;
28625;SDS011;18905;42.668;23.364;2023-01-28T08:57:55;19.00;;;11.07;;
28625;SDS011;18905;42.668;23.364;2023-01-28T09:00:21;16.73;;;9.25;;
28625;SDS011;18905;42.668;23.364;2023-01-28T09:02:49;16.45;;;9.98;;
28625;SDS011;18905;42.668;23.364;2023-01-28T09:05:16;16.17;;;9.90;;
28625;SDS011;18905;42.668;23.364;2023-01-28T09:07:42;18.98;;;9.98;;
28625;SDS011;18905;42.668;23.364;2023-01-28T09:10:08;15.27;;;9.82;;
28625;SDS011;18905;42.668;23.364;2023-01-28T09:12:34;18.63;;;10.18;;
28625;SDS011;18905;42.668;23.364;2023-01-28T09:14:59;16.92;;;10.55;;
28625;SDS011;18905;42.668;23.364;2023-01-28T09:17:25;16.42;;;10.27;;
28625;SDS011;18905;42.668;23.364;2023-01-28T09:19:50;13.40;;;8.50;;
28625;SDS011;18905;42.668;23.364;2023-01-28T09:22:16;15.73;;;9.93;;
28625;SDS011;18905;42.668;23.364;2023-01-28T09:24:42;22.05;;;10.73;;
28625;SDS011;18905;42.668;23.364;2023-01-28T09:27:07;19.23;;;10.82;;
28625;SDS011;18905;42.668;23.364;2023-01-28T09:29:33;19.58;;;10.77;;
28625;SDS011;18905;42.668;23.364;2023-01-28T09:31:58;16.15;;;9.25;;
28625;SDS011;18905;42.668;23.364;2023-01-28T09:34:24;16.83;;;10.07;;
28625;SDS011;18905;42.668;23.364;2023-01-28T09:36:49;15.98;;;9.65;;
28625;SDS011;18905;42.668;23.364;2023-01-28T09:39:15;15.40;;;9.13;;
28625;SDS011;18905;42.668;23.364;2023-01-28T09:46:49;18.17;;;9.98;;
28625;SDS011;18905;42.668;23.364;2023-01-28T09:49:19;15.77;;;9.70;;
28625;SDS011;18905;42.668;23.364;2023-01-28T09:51:56;14.90;;;8.57;;
28625;SDS011;18905;42.668;23.364;2023-01-28T09:54:37;15.45;;;8.82;;
28625;SDS011;18905;42.668;23.364;2023-01-28T09:57:16;13.45;;;8.38;;
28625;SDS011;18905;42.668;23.364;2023-01-28T09:59:46;13.85;;;8.38;;
28625;SDS011;18905;42.668;23.364;2023-01-28T10:15:18;21.77;;;11.73;;
28625;SDS011;18905;42.668;23.364;2023-01-28T10:17:46;19.15;;;11.25;;
28625;SDS011;18905;42.668;23.364;2023-01-28T10:20:19;21.42;;;12.77;;
28625;SDS011;18905;42.668;23.364;2023-01-28T10:23:13;14.48;;;7.70;;
28625;SDS011;18905;42.668;23.364;2023-01-28T10:25:46;21.45;;;11.45;;
28625;SDS011;18905;42.668;23.364;2023-01-28T10:28:23;21.45;;;11.95;;
28625;SDS011;18905;42.668;23.364;2023-01-28T10:30:54;21.08;;;12.13;;
28625;SDS011;18905;42.668;23.364;2023-01-28T10:33:34;20.75;;;13.05;;
28625;SDS011;18905;42.668;23.364;2023-01-28T10:36:07;17.88;;;9.55;;
28625;SDS011;18905;42.668;23.364;2023-01-28T10:38:34;21.52;;;11.93;;
28625;SDS011;18905;42.668;23.364;2023-01-28T10:41:00;17.35;;;10.57;;
28625;SDS011;18905;42.668;23.364;2023-01-28T10:43:32;18.17;;;11.07;;
28625;SDS011;18905;42.668;23.364;2023-01-28T10:46:13;12.98;;;8.23;;
28625;SDS011;18905;42.668;23.364;2023-01-28T10:48:44;18.17;;;9.85;;
28625;SDS011;18905;42.668;23.364;2023-01-28T10:51:17;18.45;;;10.65;;
28625;SDS011;18905;42.668;23.364;2023-01-28T10:53:53;22.92;;;12.00;;
28625;SDS011;18905;42.668;23.364;2023-01-28T11:01:36;20.05;;;11.95;;
28625;SDS011;18905;42.668;23.364;2023-01-28T11:04:23;19.52;;;11.38;;
28625;SDS011;18905;42.668;23.364;2023-01-28T11:06:52;21.13;;;12.52;;
28625;SDS011;18905;42.668;23.364;2023-01-28T11:09:21;18.73;;;11.25;;
28625;SDS011;18905;42.668;23.364;2023-01-28T11:11:48;17.30;;;11.32;;
28625;SDS011;18905;42.668;23.364;2023-01-28T11:14:21;19.98;;;11.30;;
28625;SDS011;18905;42.668;23.364;2023-01-28T11:16:49;20.13;;;11.27;;
28625;SDS011;18905;42.668;23.364;2023-01-28T11:19:17;19.20;;;10.43;;
28625;SDS011;18905;42.668;23.364;2023-01-28T11:21:48;19.00;;;9.95;;
28625;SDS011;18905;42.668;23.364;2023-01-28T11:24:20;18.48;;;11.32;;
28625;SDS011;18905;42.668;23.364;2023-01-28T11:26:49;18.27;;;10.25;;
28625;SDS011;18905;42.668;23.364;2023-01-28T11:29:20;15.10;;;9.52;;
28625;SDS011;18905;42.668;23.364;2023-01-28T11:31:46;15.73;;;9.57;;
28625;SDS011;18905;42.668;23.364;2023-01-28T11:34:13;21.02;;;10.73;;
28625;SDS011;18905;42.668;23.364;2023-01-28T11:36:49;19.48;;;10.82;;
28625;SDS011;18905;42.668;23.364;2023-01-28T11:39:37;19.70;;;10.60;;
28625;SDS011;18905;42.668;23.364;2023-01-28T11:42:15;18.20;;;10.70;;
28625;SDS011;18905;42.668;23.364;2023-01-28T11:44:43;15.68;;;8.85;;
28625;SDS011;18905;42.668;23.364;2023-01-28T11:47:13;18.08;;;10.38;;
28625;SDS011;18905;42.668;23.364;2023-01-28T11:58:50;16.50;;;9.10;;
28625;SDS011;18905;42.668;23.364;2023-01-28T12:24:20;16.23;;;10.15;;
28625;SDS011;18905;42.668;23.364;2023-01-28T12:45:40;15.90;;;9.45;;
28625;SDS011;18905;42.668;23.364;2023-01-28T12:48:56;17.42;;;10.65;;
28625;SDS011;18905;42.668;23.364;2023-01-28T12:51:17;16.08;;;10.68;;
28625;SDS011;18905;42.668;23.364;2023-01-28T12:53:59;21.15;;;10.73;;
28625;SDS011;18905;42.668;23.364;2023-01-28T12:56:54;18.88;;;11.48;;
28625;SDS011;18905;42.668;23.364;2023-01-28T12:59:26;19.90;;;12.27;;
28625;SDS011;18905;42.668;23.364;2023-01-28T13:07:14;19.75;;;12.85;;
28625;SDS011;18905;42.668;23.364;2023-01-28T13:09:53;17.20;;;10.15;;
28625;SDS011;18905;42.668;23.364;2023-01-28T13:12:28;20.98;;;12.63;;
28625;SDS011;18905;42.668;23.364;2023-01-28T13:14:55;16.60;;;9.88;;
28625;SDS011;18905;42.668;23.364;2023-01-28T13:17:31;16.55;;;10.00;;
28625;SDS011;18905;42.668;23.364;2023-01-28T13:19:57;17.27;;;10.68;;
28625;SDS011;18905;42.668;23.364;2023-01-28T13:22:30;17.98;;;10.32;;
28625;SDS011;18905;42.668;23.364;2023-01-28T13:25:20;18.10;;;10.93;;
28625;SDS011;18905;42.668;23.364;2023-01-28T13:28:01;16.88;;;10.80;;
28625;SDS011;18905;42.668;23.364;2023-01-28T13:30:30;17.33;;;10.85;;
28625;SDS011;18905;42.668;23.364;2023-01-28T13:33:00;15.88;;;8.48;;
28625;SDS011;18905;42.668;23.364;2023-01-28T13:35:37;17.50;;;8.88;;
28625;SDS011;18905;42.668;23.364;2023-01-28T13:38:05;18.52;;;10.75;;
28625;SDS011;18905;42.668;23.364;2023-01-28T13:40:33;21.13;;;12.15;;
28625;SDS011;18905;42.668;23.364;2023-01-28T13:43:04;20.88;;;12.25;;
28625;SDS011;18905;42.668;23.364;2023-01-28T13:45:31;21.00;;;10.55;;
28625;SDS011;18905;42.668;23.364;2023-01-28T13:51:17;17.88;;;10.15;;
28625;SDS011;18905;42.668;23.364;2023-01-28T13:57:04;22.35;;;11.73;;
28625;SDS011;18905;42.668;23.364;2023-01-28T13:59:53;18.88;;;11.35;;
28625;SDS011;18905;42.668;23.364;2023-01-28T14:02:32;20.35;;;12.40;;
28625;SDS011;18905;42.668;23.364;2023-01-28T14:10:30;19.73;;;11.40;;
28625;SDS011;18905;42.668;23.364;2023-01-28T14:18:46;23.30;;;13.15;;
28625;SDS011;18905;42.668;23.364;2023-01-28T14:21:14;23.95;;;11.88;;
28625;SDS011;18905;42.668;23.364;2023-01-28T14:23:52;22.45;;;13.48;;
28625;SDS011;18905;42.668;23.364;2023-01-28T14:29:11;20.33;;;11.93;;
28625;SDS011;18905;42.668;23.364;2023-01-28T14:34:19;18.67;;;11.45;;
28625;SDS011;18905;42.668;23.364;2023-01-28T14:36:46;18.60;;;10.63;;
28625;SDS011;18905;42.668;23.364;2023-01-28T14:39:23;21.13;;;12.02;;
28625;SDS011;18905;42.668;23.364;2023-01-28T14:41:52;18.13;;;11.48;;
28625;SDS011;18905;42.668;23.364;2023-01-28T14:44:25;13.82;;;7.88;;
28625;SDS011;18905;42.668;23.364;2023-01-28T14:49:51;17.42;;;10.70;;
28625;SDS011;18905;42.668;23.364;2023-01-28T14:53:00;19.48;;;11.02;;
28625;SDS011;18905;42.668;23.364;2023-01-28T14:58:26;24.77;;;14.07;;
28625;SDS011;18905;42.668;23.364;2023-01-28T15:00:57;27.88;;;14.60;;
28625;SDS011;18905;42.668;23.364;2023-01-28T15:03:24;16.88;;;10.02;;
28625;SDS011;18905;42.668;23.364;2023-01-28T15:06:01;20.98;;;12.95;;
28625;SDS011;18905;42.668;23.364;2023-01-28T15:08:31;22.88;;;11.65;;
28625;SDS011;18905;42.668;23.364;2023-01-28T15:10:56;23.50;;;12.75;;
28625;SDS011;18905;42.668;23.364;2023-01-28T15:13:24;23.00;;;13.40;;
28625;SDS011;18905;42.668;23.364;2023-01-28T15:15:52;20.38;;;11.77;;
28625;SDS011;18905;42.668;23.364;2023-01-28T15:18:38;20.65;;;12.23;;
28625;SDS011;18905;42.668;23.364;2023-01-28T15:21:06;20.58;;;12.15;;
28625;SDS011;18905;42.668;23.364;2023-01-28T15:23:34;13.30;;;7.80;;
28625;SDS011;18905;42.668;23.364;2023-01-28T15:26:05;17.00;;;9.90;;
28625;SDS011;18905;42.668;23.364;2023-01-28T15:28:32;19.42;;;11.50;;
28625;SDS011;18905;42.668;23.364;2023-01-28T15:30:59;20.92;;;12.38;;
28625;SDS011;18905;42.668;23.364;2023-01-28T15:33:24;19.38;;;11.75;;
28625;SDS011;18905;42.668;23.364;2023-01-28T15:35:57;15.75;;;7.97;;
28625;SDS011;18905;42.668;23.364;2023-01-28T15:38:25;17.45;;;10.50;;
28625;SDS011;18905;42.668;23.364;2023-01-28T15:40:55;19.55;;;10.85;;
28625;SDS011;18905;42.668;23.364;2023-01-28T15:43:25;17.85;;;11.45;;
28625;SDS011;18905;42.668;23.364;2023-01-28T15:45:53;20.83;;;10.65;;
28625;SDS011;18905;42.668;23.364;2023-01-28T15:48:21;18.83;;;11.70;;
28625;SDS011;18905;42.668;23.364;2023-01-28T15:50:56;18.33;;;11.82;;
28625;SDS011;18905;42.668;23.364;2023-01-28T15:53:23;18.17;;;10.75;;
28625;SDS011;18905;42.668;23.364;2023-01-28T15:55:49;18.25;;;12.15;;
28625;SDS011;18905;42.668;23.364;2023-01-28T15:58:16;21.73;;;14.35;;
28625;SDS011;18905;42.668;23.364;2023-01-28T16:00:43;18.88;;;12.75;;
28625;SDS011;18905;42.668;23.364;2023-01-28T16:03:09;19.00;;;11.60;;
28625;SDS011;18905;42.668;23.364;2023-01-28T16:05:52;14.23;;;10.10;;
28625;SDS011;18905;42.668;23.364;2023-01-28T16:11:22;15.88;;;9.60;;
28625;SDS011;18905;42.668;23.364;2023-01-28T16:13:50;19.80;;;10.75;;
28625;SDS011;18905;42.668;23.364;2023-01-28T16:16:23;19.67;;;12.00;;
28625;SDS011;18905;42.668;23.364;2023-01-28T16:18:52;16.40;;;9.40;;
28625;SDS011;18905;42.668;23.364;2023-01-28T16:21:24;18.67;;;11.20;;
28625;SDS011;18905;42.668;23.364;2023-01-28T16:23:58;18.48;;;10.38;;
28625;SDS011;18905;42.668;23.364;2023-01-28T16:26:27;17.67;;;9.85;;
28625;SDS011;18905;42.668;23.364;2023-01-28T16:28:55;17.25;;;10.93;;
28625;SDS011;18905;42.668;23.364;2023-01-28T16:31:20;15.05;;;9.27;;
28625;SDS011;18905;42.668;23.364;2023-01-28T16:33:46;17.67;;;9.38;;
28625;SDS011;18905;42.668;23.364;2023-01-28T16:36:11;17.20;;;10.23;;
28625;SDS011;18905;42.668;23.364;2023-01-28T16:38:38;19.33;;;12.38;;
28625;SDS011;18905;42.668;23.364;2023-01-28T16:41:04;16.38;;;10.43;;
28625;SDS011;18905;42.668;23.364;2023-01-28T16:43:36;18.15;;;11.07;;
28625;SDS011;18905;42.668;23.364;2023-01-28T16:46:01;18.25;;;10.65;;
28625;SDS011;18905;42.668;23.364;2023-01-28T16:48:27;18.88;;;8.02;;